sensor_id;sensor_type;location;lat;lon;timestamp;pressure;altitude;pressure_sealevel;temperature;humidity
71105;BME280;58760;48.716;8.962;2023-04-08T00:02:13;96702.81;;;7.23;98.06
71105;BME280;58760;48.716;8.962;2023-04-08T00:04:38;96699.88;;;7.26;98.45
71105;BME280;58760;48.716;8.962;2023-04-08T00:07:03;96708.63;;;7.26;98.15
71105;BME280;58760;48.716;8.962;2023-04-08T00:09:29;96706.97;;;7.25;98.35
71105;BME280;58760;48.716;8.962;2023-04-08T00:11:54;96710.97;;;7.29;98.01
71105;BME280;58760;48.716;8.962;2023-04-08T00:14:20;96708.34;;;7.29;98.16
71105;BME280;58760;48.716;8.962;2023-04-08T00:16:46;96711.81;;;7.30;97.91
71105;BME280;58760;48.716;8.962;2023-04-08T00:19:11;96711.94;;;7.28;97.81
71105;BME280;58760;48.716;8.962;2023-04-08T00:21:36;96712.09;;;7.27;97.63
71105;BME280;58760;48.716;8.962;2023-04-08T00:24:02;96714.44;;;7.30;97.35
71105;BME280;58760;48.716;8.962;2023-04-08T00:26:28;96714.44;;;7.30;96.72
71105;BME280;58760;48.716;8.962;2023-04-08T00:28:53;96722.78;;;7.25;96.54
71105;BME280;58760;48.716;8.962;2023-04-08T00:31:18;96723.09;;;7.22;95.84
71105;BME280;58760;48.716;8.962;2023-04-08T00:33:44;96717.28;;;7.19;95.75
71105;BME280;58760;48.716;8.962;2023-04-08T00:36:09;96713.97;;;7.17;95.46
71105;BME280;58760;48.716;8.962;2023-04-08T00:38:35;96725.66;;;7.14;95.59
71105;BME280;58760;48.716;8.962;2023-04-08T00:41:00;96719.84;;;7.11;95.50
71105;BME280;58760;48.716;8.962;2023-04-08T00:43:25;96724.16;;;7.12;95.45
71105;BME280;58760;48.716;8.962;2023-04-08T00:45:51;96725.78;;;7.13;95.42
71105;BME280;58760;48.716;8.962;2023-04-08T00:48:16;96723.38;;;7.19;95.30
71105;BME280;58760;48.716;8.962;2023-04-08T00:50:42;96722.84;;;7.16;94.59
71105;BME280;58760;48.716;8.962;2023-04-08T00:53:08;96723.44;;;7.10;94.93
71105;BME280;58760;48.716;8.962;2023-04-08T00:55:34;96717.31;;;7.09;94.97
71105;BME280;58760;48.716;8.962;2023-04-08T00:58:00;96720.66;;;7.11;94.30
71105;BME280;58760;48.716;8.962;2023-04-08T01:00:28;96726.25;;;7.08;94.51
71105;BME280;58760;48.716;8.962;2023-04-08T01:05:37;96719.88;;;7.01;94.66
71105;BME280;58760;48.716;8.962;2023-04-08T01:08:06;96723.19;;;7.03;94.93
71105;BME280;58760;48.716;8.962;2023-04-08T01:10:33;96722.53;;;7.01;94.76
71105;BME280;58760;48.716;8.962;2023-04-08T01:13:03;96716.00;;;7.05;94.99
71105;BME280;58760;48.716;8.962;2023-04-08T01:15:30;96717.91;;;7.03;95.05
71105;BME280;58760;48.716;8.962;2023-04-08T01:17:58;96720.25;;;7.06;95.07
71105;BME280;58760;48.716;8.962;2023-04-08T01:20:25;96723.19;;;7.03;94.97
71105;BME280;58760;48.716;8.962;2023-04-08T01:25:49;96723.66;;;6.99;95.13
71105;BME280;58760;48.716;8.962;2023-04-08T01:28:16;96725.47;;;6.98;95.21
71105;BME280;58760;48.716;8.962;2023-04-08T01:30:43;96725.59;;;6.97;95.58
71105;BME280;58760;48.716;8.962;2023-04-08T01:33:11;96727.69;;;6.93;95.30
71105;BME280;58760;48.716;8.962;2023-04-08T01:35:37;96727.69;;;6.93;95.53
71105;BME280;58760;48.716;8.962;2023-04-08T01:38:05;96722.53;;;7.01;95.28
71105;BME280;58760;48.716;8.962;2023-04-08T01:40:32;96721.81;;;6.99;94.77
71105;BME280;58760;48.716;8.962;2023-04-08T01:42:59;96723.94;;;6.96;94.94
71105;BME280;58760;48.716;8.962;2023-04-08T01:45:26;96715.75;;;6.99;95.15
71105;BME280;58760;48.716;8.962;2023-04-08T01:47:52;96719.34;;;6.98;95.11
71105;BME280;58760;48.716;8.962;2023-04-08T01:50:19;96715.91;;;6.88;95.51
71105;BME280;58760;48.716;8.962;2023-04-08T01:52:47;96721.31;;;6.86;95.71
71105;BME280;58760;48.716;8.962;2023-04-08T01:55:13;96717.97;;;6.94;95.79
71105;BME280;58760;48.716;8.962;2023-04-08T01:57:40;96717.97;;;6.94;95.95
71105;BME280;58760;48.716;8.962;2023-04-08T02:00:09;96713.81;;;6.91;95.76
71105;BME280;58760;48.716;8.962;2023-04-08T02:02:37;96719.09;;;6.91;95.58
71105;BME280;58760;48.716;8.962;2023-04-08T02:05:03;96714.13;;;6.88;95.43
71105;BME280;58760;48.716;8.962;2023-04-08T02:07:29;96718.31;;;6.81;95.88
71105;BME280;58760;48.716;8.962;2023-04-08T02:09:55;96716.34;;;6.83;95.29
71105;BME280;58760;48.716;8.962;2023-04-08T02:12:20;96710.25;;;6.82;95.18
71105;BME280;58760;48.716;8.962;2023-04-08T02:14:46;96714.44;;;6.75;95.05
71105;BME280;58760;48.716;8.962;2023-04-08T02:17:32;96716.81;;;6.69;95.35
71105;BME280;58760;48.716;8.962;2023-04-08T02:19:59;96715.16;;;6.68;95.79
71105;BME280;58760;48.716;8.962;2023-04-08T02:25:03;96718.91;;;6.65;95.67
71105;BME280;58760;48.716;8.962;2023-04-08T02:27:28;96713.66;;;6.65;95.28
71105;BME280;58760;48.716;8.962;2023-04-08T02:29:58;96725.44;;;6.61;95.28
71105;BME280;58760;48.716;8.962;2023-04-08T02:32:25;96727.97;;;6.63;95.25
71105;BME280;58760;48.716;8.962;2023-04-08T02:34:55;96717.97;;;6.57;94.81
71105;BME280;58760;48.716;8.962;2023-04-08T02:37:22;96713.38;;;6.59;95.14
71105;BME280;58760;48.716;8.962;2023-04-08T02:39:47;96713.69;;;6.56;95.50
71105;BME280;58760;48.716;8.962;2023-04-08T02:42:12;96713.25;;;6.51;95.65
71105;BME280;58760;48.716;8.962;2023-04-08T02:44:38;96721.88;;;6.53;95.73
71105;BME280;58760;48.716;8.962;2023-04-08T02:47:03;96723.69;;;6.52;96.10
71105;BME280;58760;48.716;8.962;2023-04-08T02:49:29;96709.00;;;6.50;96.34
71105;BME280;58760;48.716;8.962;2023-04-08T02:51:54;96715.34;;;6.47;96.77
71105;BME280;58760;48.716;8.962;2023-04-08T02:54:20;96715.78;;;6.43;97.06
71105;BME280;58760;48.716;8.962;2023-04-08T02:56:45;96724.13;;;6.38;97.42
71105;BME280;58760;48.716;8.962;2023-04-08T02:59:11;96728.00;;;6.44;97.55
71105;BME280;58760;48.716;8.962;2023-04-08T03:01:36;96727.84;;;6.45;97.28
71105;BME280;58760;48.716;8.962;2023-04-08T03:04:02;96724.66;;;6.51;96.96
71105;BME280;58760;48.716;8.962;2023-04-08T03:06:27;96722.28;;;6.48;97.01
71105;BME280;58760;48.716;8.962;2023-04-08T03:08:52;96728.97;;;6.43;97.28
71105;BME280;58760;48.716;8.962;2023-04-08T03:11:18;96730.19;;;6.48;97.14
71105;BME280;58760;48.716;8.962;2023-04-08T03:13:43;96727.31;;;6.42;97.37
71105;BME280;58760;48.716;8.962;2023-04-08T03:16:08;96732.44;;;6.53;97.19
71105;BME280;58760;48.716;8.962;2023-04-08T03:18:33;96728.28;;;6.50;96.55
71105;BME280;58760;48.716;8.962;2023-04-08T03:20:59;96731.00;;;6.58;96.61
71105;BME280;58760;48.716;8.962;2023-04-08T03:23:25;96726.41;;;6.60;96.26
71105;BME280;58760;48.716;8.962;2023-04-08T03:25:50;96725.06;;;6.56;96.24
71105;BME280;58760;48.716;8.962;2023-04-08T03:28:16;96733.34;;;6.61;96.36
71105;BME280;58760;48.716;8.962;2023-04-08T03:30:41;96728.13;;;6.52;96.24
71105;BME280;58760;48.716;8.962;2023-04-08T03:33:07;96725.06;;;6.56;96.37
71105;BME280;58760;48.716;8.962;2023-04-08T03:35:33;96720.72;;;6.65;96.25
71105;BME280;58760;48.716;8.962;2023-04-08T03:37:58;96718.09;;;6.65;96.02
71105;BME280;58760;48.716;8.962;2023-04-08T03:40:23;96733.66;;;6.58;96.39
71105;BME280;58760;48.716;8.962;2023-04-08T03:42:49;96723.22;;;6.57;96.71
71105;BME280;58760;48.716;8.962;2023-04-08T03:45:14;96721.59;;;6.56;96.73
71105;BME280;58760;48.716;8.962;2023-04-08T03:47:40;96727.81;;;6.55;97.00
71105;BME280;58760;48.716;8.962;2023-04-08T03:50:05;96724.81;;;6.50;97.11
71105;BME280;58760;48.716;8.962;2023-04-08T03:52:31;96727.72;;;6.47;96.95
71105;BME280;58760;48.716;8.962;2023-04-08T03:54:56;96723.13;;;6.49;97.06
71105;BME280;58760;48.716;8.962;2023-04-08T03:57:22;96722.59;;;6.45;97.20
71105;BME280;58760;48.716;8.962;2023-04-08T03:59:47;96723.53;;;6.44;97.45
71105;BME280;58760;48.716;8.962;2023-04-08T04:02:12;96716.63;;;6.43;97.44
71105;BME280;58760;48.716;8.962;2023-04-08T04:04:38;96724.38;;;6.45;97.56
71105;BME280;58760;48.716;8.962;2023-04-08T04:07:03;96721.34;;;6.40;97.60
71105;BME280;58760;48.716;8.962;2023-04-08T04:09:28;96718.84;;;6.38;97.66
71105;BME280;58760;48.716;8.962;2023-04-08T04:11:54;96721.19;;;6.41;97.91
71105;BME280;58760;48.716;8.962;2023-04-08T04:14:19;96722.59;;;6.36;97.96
71105;BME280;58760;48.716;8.962;2023-04-08T04:16:44;96726.34;;;6.43;97.56
71105;BME280;58760;48.716;8.962;2023-04-08T04:19:10;96733.97;;;6.36;98.00
71105;BME280;58760;48.716;8.962;2023-04-08T04:21:35;96734.28;;;6.33;98.18
71105;BME280;58760;48.716;8.962;2023-04-08T04:24:01;96738.72;;;6.32;98.42
71105;BME280;58760;48.716;8.962;2023-04-08T04:26:26;96741.06;;;6.36;98.46
71105;BME280;58760;48.716;8.962;2023-04-08T04:28:52;96738.41;;;6.36;98.29
71105;BME280;58760;48.716;8.962;2023-04-08T04:31:21;96740.78;;;6.39;98.14
71105;BME280;58760;48.716;8.962;2023-04-08T04:33:47;96743.41;;;6.39;98.32
71105;BME280;58760;48.716;8.962;2023-04-08T04:36:13;96744.81;;;6.33;98.59
71105;BME280;58760;48.716;8.962;2023-04-08T04:38:39;96747.72;;;6.40;98.71
71105;BME280;58760;48.716;8.962;2023-04-08T04:41:04;96743.69;;;6.36;98.97
71105;BME280;58760;48.716;8.962;2023-04-08T04:43:29;96748.25;;;6.43;98.81
71105;BME280;58760;48.716;8.962;2023-04-08T04:45:55;96750.34;;;6.40;98.30
71105;BME280;58760;48.716;8.962;2023-04-08T04:48:21;96735.91;;;6.34;98.38
71105;BME280;58760;48.716;8.962;2023-04-08T04:50:54;96739.00;;;6.29;98.87
71105;BME280;58760;48.716;8.962;2023-04-08T04:53:20;96740.66;;;6.30;99.02
71105;BME280;58760;48.716;8.962;2023-04-08T04:55:45;96743.97;;;6.32;99.45
71105;BME280;58760;48.716;8.962;2023-04-08T04:58:11;96751.88;;;6.32;99.14
71105;BME280;58760;48.716;8.962;2023-04-08T05:00:36;96751.19;;;6.30;99.07
71105;BME280;58760;48.716;8.962;2023-04-08T05:03:01;96756.03;;;6.25;99.46
71105;BME280;58760;48.716;8.962;2023-04-08T05:05:27;96751.31;;;6.29;99.39
71105;BME280;58760;48.716;8.962;2023-04-08T05:07:52;96757.00;;;6.24;99.73
71105;BME280;58760;48.716;8.962;2023-04-08T05:10:18;96759.09;;;6.30;99.41
71105;BME280;58760;48.716;8.962;2023-04-08T05:12:43;96761.84;;;6.39;99.40
71105;BME280;58760;48.716;8.962;2023-04-08T05:15:09;96769.50;;;6.32;99.09
71105;BME280;58760;48.716;8.962;2023-04-08T05:17:34;96770.44;;;6.41;99.23
71105;BME280;58760;48.716;8.962;2023-04-08T05:20:00;96774.63;;;6.43;99.13
71105;BME280;58760;48.716;8.962;2023-04-08T05:22:25;96773.66;;;6.35;99.16
71105;BME280;58760;48.716;8.962;2023-04-08T05:24:50;96775.28;;;6.45;99.12
71105;BME280;58760;48.716;8.962;2023-04-08T05:27:16;96771.44;;;6.40;98.96
71105;BME280;58760;48.716;8.962;2023-04-08T05:29:41;96775.97;;;6.47;99.58
71105;BME280;58760;48.716;8.962;2023-04-08T05:32:06;96776.66;;;6.59;98.63
71105;BME280;58760;48.716;8.962;2023-04-08T05:34:32;96775.00;;;6.58;97.87
71105;BME280;58760;48.716;8.962;2023-04-08T05:36:57;96774.56;;;6.62;98.19
71105;BME280;58760;48.716;8.962;2023-04-08T05:39:22;96777.22;;;6.62;98.01
71105;BME280;58760;48.716;8.962;2023-04-08T05:41:48;96780.13;;;6.69;98.05
71105;BME280;58760;48.716;8.962;2023-04-08T05:44:13;96790.25;;;6.64;97.57
71105;BME280;58760;48.716;8.962;2023-04-08T05:46:39;96789.66;;;6.79;97.04
71105;BME280;58760;48.716;8.962;2023-04-08T05:49:04;96783.28;;;6.82;96.27
71105;BME280;58760;48.716;8.962;2023-04-08T05:51:30;96784.09;;;6.82;95.93
71105;BME280;58760;48.716;8.962;2023-04-08T05:53:55;96783.94;;;6.84;96.33
71105;BME280;58760;48.716;8.962;2023-04-08T05:56:21;96793.78;;;6.92;94.84
71105;BME280;58760;48.716;8.962;2023-04-08T05:58:46;96796.00;;;6.87;94.84
71105;BME280;58760;48.716;8.962;2023-04-08T06:01:12;96796.81;;;6.97;94.35
71105;BME280;58760;48.716;8.962;2023-04-08T06:03:37;96803.59;;;6.99;93.90
71105;BME280;58760;48.716;8.962;2023-04-08T06:06:02;96806.94;;;7.01;93.37
71105;BME280;58760;48.716;8.962;2023-04-08T06:08:28;96801.94;;;7.08;92.83
71105;BME280;58760;48.716;8.962;2023-04-08T06:10:53;96803.75;;;6.98;93.10
71105;BME280;58760;48.716;8.962;2023-04-08T06:13:19;96809.38;;;7.12;92.71
71105;BME280;58760;48.716;8.962;2023-04-08T06:15:45;96811.47;;;7.09;91.83
71105;BME280;58760;48.716;8.962;2023-04-08T06:18:10;96810.50;;;7.10;91.30
71105;BME280;58760;48.716;8.962;2023-04-08T06:20:35;96821.88;;;7.20;90.09
71105;BME280;58760;48.716;8.962;2023-04-08T06:23:01;96816.88;;;7.17;89.94
71105;BME280;58760;48.716;8.962;2023-04-08T06:25:26;96822.28;;;7.15;89.59
71105;BME280;58760;48.716;8.962;2023-04-08T06:27:51;96816.50;;;7.12;90.16
71105;BME280;58760;48.716;8.962;2023-04-08T06:30:17;96811.72;;;7.15;90.41
71105;BME280;58760;48.716;8.962;2023-04-08T06:32:42;96820.75;;;7.22;89.73
71105;BME280;58760;48.716;8.962;2023-04-08T06:35:08;96823.97;;;7.16;89.99
71105;BME280;58760;48.716;8.962;2023-04-08T06:37:33;96809.63;;;7.19;90.28
71105;BME280;58760;48.716;8.962;2023-04-08T06:40:04;96819.81;;;7.14;90.37
71105;BME280;58760;48.716;8.962;2023-04-08T06:42:29;96823.25;;;7.24;90.57
71105;BME280;58760;48.716;8.962;2023-04-08T06:44:55;96825.97;;;7.32;90.36
71105;BME280;58760;48.716;8.962;2023-04-08T06:47:21;96827.47;;;7.44;89.66
71105;BME280;58760;48.716;8.962;2023-04-08T06:49:46;96829.28;;;7.44;89.42
71105;BME280;58760;48.716;8.962;2023-04-08T06:52:12;96831.16;;;7.61;88.08
71105;BME280;58760;48.716;8.962;2023-04-08T06:54:37;96827.38;;;7.63;87.41
71105;BME280;58760;48.716;8.962;2023-04-08T06:57:03;96826.19;;;7.75;86.72
71105;BME280;58760;48.716;8.962;2023-04-08T06:59:28;96826.06;;;7.77;86.08
71105;BME280;58760;48.716;8.962;2023-04-08T07:01:54;96827.19;;;7.92;85.67
71105;BME280;58760;48.716;8.962;2023-04-08T07:04:19;96831.28;;;7.86;85.29
71105;BME280;58760;48.716;8.962;2023-04-08T07:06:45;96834.66;;;7.97;84.70
71105;BME280;58760;48.716;8.962;2023-04-08T07:09:10;96831.78;;;7.90;84.72
71105;BME280;58760;48.716;8.962;2023-04-08T07:11:36;96829.97;;;7.90;84.98
71105;BME280;58760;48.716;8.962;2023-04-08T07:14:01;96835.31;;;7.81;85.22
71105;BME280;58760;48.716;8.962;2023-04-08T07:16:26;96838.38;;;7.86;84.83
71105;BME280;58760;48.716;8.962;2023-04-08T07:18:52;96832.63;;;7.90;85.24
71105;BME280;58760;48.716;8.962;2023-04-08T07:21:17;96841.97;;;7.85;85.22
71105;BME280;58760;48.716;8.962;2023-04-08T07:23:43;96838.38;;;7.86;85.07
71105;BME280;58760;48.716;8.962;2023-04-08T07:26:08;96843.66;;;7.86;85.40
71105;BME280;58760;48.716;8.962;2023-04-08T07:28:34;96849.38;;;7.81;85.26
71105;BME280;58760;48.716;8.962;2023-04-08T07:31:28;96845.22;;;7.79;84.99
71105;BME280;58760;48.716;8.962;2023-04-08T07:33:54;96840.25;;;7.94;84.44
71105;BME280;58760;48.716;8.962;2023-04-08T07:36:20;96854.69;;;7.99;83.88
71105;BME280;58760;48.716;8.962;2023-04-08T07:38:45;96856.34;;;8.00;84.11
71105;BME280;58760;48.716;8.962;2023-04-08T07:41:10;96863.75;;;8.14;83.51
71105;BME280;58760;48.716;8.962;2023-04-08T07:43:36;96859.91;;;8.26;82.59
71105;BME280;58760;48.716;8.962;2023-04-08T07:46:02;96862.56;;;8.26;82.70
71105;BME280;58760;48.716;8.962;2023-04-08T07:48:30;96866.16;;;8.35;82.63
71105;BME280;58760;48.716;8.962;2023-04-08T07:50:55;96864.09;;;8.47;82.05
71105;BME280;58760;48.716;8.962;2023-04-08T07:53:21;96867.19;;;8.60;81.23
71105;BME280;58760;48.716;8.962;2023-04-08T07:55:48;96868.69;;;8.62;81.15
71105;BME280;58760;48.716;8.962;2023-04-08T07:58:13;96860.47;;;8.65;81.23
71105;BME280;58760;48.716;8.962;2023-04-08T08:00:39;96861.06;;;8.77;80.69
71105;BME280;58760;48.716;8.962;2023-04-08T08:03:05;96855.91;;;8.93;79.85
71105;BME280;58760;48.716;8.962;2023-04-08T08:05:30;96858.34;;;8.86;79.59
71105;BME280;58760;48.716;8.962;2023-04-08T08:07:55;96863.03;;;8.75;80.30
71105;BME280;58760;48.716;8.962;2023-04-08T08:10:21;96867.19;;;8.77;80.54
71105;BME280;58760;48.716;8.962;2023-04-08T08:12:46;96873.50;;;8.84;79.65
71105;BME280;58760;48.716;8.962;2023-04-08T08:15:12;96870.41;;;8.89;78.84
71105;BME280;58760;48.716;8.962;2023-04-08T08:17:37;96866.53;;;9.01;77.72
71105;BME280;58760;48.716;8.962;2023-04-08T08:20:03;96872.94;;;8.90;77.81
71105;BME280;58760;48.716;8.962;2023-04-08T08:22:29;96867.16;;;8.95;77.56
71105;BME280;58760;48.716;8.962;2023-04-08T08:24:55;96872.00;;;9.00;77.36
71105;BME280;58760;48.716;8.962;2023-04-08T08:27:22;96873.63;;;9.01;76.76
71105;BME280;58760;48.716;8.962;2023-04-08T08:29:47;96869.28;;;9.17;76.46
71105;BME280;58760;48.716;8.962;2023-04-08T08:32:12;96873.75;;;9.42;75.69
71105;BME280;58760;48.716;8.962;2023-04-08T08:34:38;96881.06;;;9.49;74.84
71105;BME280;58760;48.716;8.962;2023-04-08T08:37:03;96883.13;;;9.37;75.44
71105;BME280;58760;48.716;8.962;2023-04-08T08:39:29;96889.16;;;9.47;75.92
71105;BME280;58760;48.716;8.962;2023-04-08T08:41:55;96892.50;;;9.49;75.46
71105;BME280;58760;48.716;8.962;2023-04-08T08:44:21;96898.97;;;9.55;74.75
71105;BME280;58760;48.716;8.962;2023-04-08T08:46:46;96894.41;;;9.65;74.40
71105;BME280;58760;48.716;8.962;2023-04-08T08:49:13;96900.75;;;9.72;73.23
71105;BME280;58760;48.716;8.962;2023-04-08T08:51:44;96890.47;;;9.77;72.94
71105;BME280;58760;48.716;8.962;2023-04-08T08:54:10;96890.53;;;9.85;72.56
71105;BME280;58760;48.716;8.962;2023-04-08T08:56:36;96893.53;;;9.90;72.79
71105;BME280;58760;48.716;8.962;2023-04-08T08:59:01;96895.06;;;10.01;71.65
71105;BME280;58760;48.716;8.962;2023-04-08T09:01:34;96893.38;;;9.99;72.48
71105;BME280;58760;48.716;8.962;2023-04-08T09:04:18;96895.47;;;10.14;70.65
71105;BME280;58760;48.716;8.962;2023-04-08T09:06:48;96897.41;;;10.12;71.44
71105;BME280;58760;48.716;8.962;2023-04-08T09:09:15;96899.06;;;10.13;72.06
71105;BME280;58760;48.716;8.962;2023-04-08T09:11:43;96900.25;;;10.18;71.27
71105;BME280;58760;48.716;8.962;2023-04-08T09:14:18;96892.31;;;10.18;71.14
71105;BME280;58760;48.716;8.962;2023-04-08T09:16:43;96890.72;;;10.33;69.66
71105;BME280;58760;48.716;8.962;2023-04-08T09:19:10;96889.56;;;10.36;70.48
71105;BME280;58760;48.716;8.962;2023-04-08T09:21:36;96892.56;;;10.57;69.17
71105;BME280;58760;48.716;8.962;2023-04-08T09:24:03;96896.88;;;10.50;69.27
71105;BME280;58760;48.716;8.962;2023-04-08T09:26:28;96903.84;;;10.67;68.86
71105;BME280;58760;48.716;8.962;2023-04-08T09:29:07;96889.28;;;10.87;68.15
71105;BME280;58760;48.716;8.962;2023-04-08T09:31:35;96890.78;;;10.98;66.09
71105;BME280;58760;48.716;8.962;2023-04-08T09:34:12;96902.38;;;11.13;65.93
71105;BME280;58760;48.716;8.962;2023-04-08T09:36:39;96894.41;;;10.97;63.09
71105;BME280;58760;48.716;8.962;2023-04-08T09:39:05;96899.91;;;10.87;63.91
71105;BME280;58760;48.716;8.962;2023-04-08T09:41:35;96903.03;;;10.83;64.54
71105;BME280;58760;48.716;8.962;2023-04-08T09:44:03;96897.56;;;10.76;64.41
71105;BME280;58760;48.716;8.962;2023-04-08T09:46:39;96907.03;;;10.87;62.40
71105;BME280;58760;48.716;8.962;2023-04-08T09:51:35;96907.03;;;11.03;59.89
71105;BME280;58760;48.716;8.962;2023-04-08T09:54:08;96903.72;;;11.17;61.22
71105;BME280;58760;48.716;8.962;2023-04-08T09:56:42;96900.69;;;11.28;56.84
71105;BME280;58760;48.716;8.962;2023-04-08T09:59:12;96894.56;;;11.20;57.98
71105;BME280;58760;48.716;8.962;2023-04-08T10:01:49;96895.69;;;11.49;57.85
71105;BME280;58760;48.716;8.962;2023-04-08T10:04:19;96888.03;;;11.63;55.95
71105;BME280;58760;48.716;8.962;2023-04-08T10:06:48;96888.84;;;11.71;56.05
71105;BME280;58760;48.716;8.962;2023-04-08T10:09:19;96896.91;;;11.94;55.40
71105;BME280;58760;48.716;8.962;2023-04-08T10:11:45;96891.25;;;11.97;55.43
71105;BME280;58760;48.716;8.962;2023-04-08T10:14:10;96900.94;;;11.82;56.73
71105;BME280;58760;48.716;8.962;2023-04-08T10:16:36;96901.06;;;11.96;54.42
71105;BME280;58760;48.716;8.962;2023-04-08T10:19:35;96894.25;;;11.94;55.58
71105;BME280;58760;48.716;8.962;2023-04-08T10:22:03;96897.88;;;12.01;55.99
71105;BME280;58760;48.716;8.962;2023-04-08T10:24:28;96899.47;;;12.18;55.22
71105;BME280;58760;48.716;8.962;2023-04-08T10:26:53;96896.88;;;12.33;55.13
71105;BME280;58760;48.716;8.962;2023-04-08T10:31:47;96892.84;;;12.45;53.55
71105;BME280;58760;48.716;8.962;2023-04-08T10:34:16;96887.75;;;12.35;53.04
71105;BME280;58760;48.716;8.962;2023-04-08T10:36:45;96888.06;;;12.32;53.73
71105;BME280;58760;48.716;8.962;2023-04-08T10:39:12;96889.91;;;12.63;54.28
71105;BME280;58760;48.716;8.962;2023-04-08T10:41:46;96882.47;;;12.81;52.56
71105;BME280;58760;48.716;8.962;2023-04-08T10:44:22;96891.38;;;12.88;52.63
71105;BME280;58760;48.716;8.962;2023-04-08T10:46:49;96891.59;;;13.24;51.47
71105;BME280;58760;48.716;8.962;2023-04-08T10:49:15;96884.56;;;13.08;53.55
71105;BME280;58760;48.716;8.962;2023-04-08T10:51:42;96890.59;;;13.25;52.42
71105;BME280;58760;48.716;8.962;2023-04-08T10:54:17;96886.81;;;12.96;52.57
71105;BME280;58760;48.716;8.962;2023-04-08T10:56:44;96888.91;;;12.64;53.22
71105;BME280;58760;48.716;8.962;2023-04-08T10:59:12;96900.25;;;12.27;54.46
71105;BME280;58760;48.716;8.962;2023-04-08T11:01:40;96893.75;;;11.98;55.71
71105;BME280;58760;48.716;8.962;2023-04-08T11:04:10;96891.03;;;11.60;56.96
71105;BME280;58760;48.716;8.962;2023-04-08T11:06:37;96889.72;;;11.39;57.46
71105;BME280;58760;48.716;8.962;2023-04-08T11:09:03;96891.25;;;11.26;58.02
71105;BME280;58760;48.716;8.962;2023-04-08T11:11:29;96897.75;;;11.07;58.57
71105;BME280;58760;48.716;8.962;2023-04-08T11:13:55;96891.75;;;11.21;58.15
71105;BME280;58760;48.716;8.962;2023-04-08T11:16:21;96893.75;;;11.27;58.64
71105;BME280;58760;48.716;8.962;2023-04-08T11:18:47;96892.28;;;11.09;59.21
71105;BME280;58760;48.716;8.962;2023-04-08T11:21:12;96890.94;;;11.05;59.16
71105;BME280;58760;48.716;8.962;2023-04-08T11:23:37;96893.25;;;10.99;59.07
71105;BME280;58760;48.716;8.962;2023-04-08T11:26:03;96892.75;;;11.04;59.33
71105;BME280;58760;48.716;8.962;2023-04-08T11:28:29;96895.25;;;10.97;58.13
71105;BME280;58760;48.716;8.962;2023-04-08T11:30:55;96897.75;;;10.91;58.44
71105;BME280;58760;48.716;8.962;2023-04-08T11:33:25;96892.59;;;10.89;57.86
71105;BME280;58760;48.716;8.962;2023-04-08T11:35:53;96894.59;;;10.79;57.06
71105;BME280;58760;48.716;8.962;2023-04-08T11:38:23;96888.44;;;10.79;56.51
71105;BME280;58760;48.716;8.962;2023-04-08T11:40:55;96891.59;;;10.66;56.37
71105;BME280;58760;48.716;8.962;2023-04-08T11:43:23;96891.75;;;10.65;56.78
71105;BME280;58760;48.716;8.962;2023-04-08T11:45:49;96900.38;;;10.59;56.52
71105;BME280;58760;48.716;8.962;2023-04-08T11:48:15;96887.72;;;10.44;55.57
71105;BME280;58760;48.716;8.962;2023-04-08T11:50:42;96893.03;;;10.44;56.35
71105;BME280;58760;48.716;8.962;2023-04-08T11:53:23;96886.59;;;10.63;56.73
71105;BME280;58760;48.716;8.962;2023-04-08T11:55:49;96892.09;;;10.78;56.19
71105;BME280;58760;48.716;8.962;2023-04-08T11:58:14;96891.78;;;10.73;56.63
71105;BME280;58760;48.716;8.962;2023-04-08T12:00:40;96892.06;;;10.70;55.33
71105;BME280;58760;48.716;8.962;2023-04-08T12:03:07;96895.41;;;10.72;55.86
71105;BME280;58760;48.716;8.962;2023-04-08T12:05:32;96891.44;;;10.76;56.17
71105;BME280;58760;48.716;8.962;2023-04-08T12:07:58;96895.91;;;10.75;54.70
71105;BME280;58760;48.716;8.962;2023-04-08T12:10:23;96894.09;;;10.84;54.23
71105;BME280;58760;48.716;8.962;2023-04-08T12:12:51;96890.09;;;10.88;53.27
71105;BME280;58760;48.716;8.962;2023-04-08T12:15:17;96894.59;;;10.87;54.08
71105;BME280;58760;48.716;8.962;2023-04-08T12:17:43;96896.75;;;10.76;54.33
71105;BME280;58760;48.716;8.962;2023-04-08T12:20:10;96897.09;;;10.73;54.72
71105;BME280;58760;48.716;8.962;2023-04-08T12:22:35;96895.09;;;10.75;53.89
71105;BME280;58760;48.716;8.962;2023-04-08T12:25:01;96895.25;;;10.81;54.11
71105;BME280;58760;48.716;8.962;2023-04-08T12:27:31;96900.72;;;10.88;53.68
71105;BME280;58760;48.716;8.962;2023-04-08T12:30:00;96898.25;;;10.94;54.34
71105;BME280;58760;48.716;8.962;2023-04-08T12:32:25;96896.25;;;10.96;53.78
71105;BME280;58760;48.716;8.962;2023-04-08T12:34:51;96905.03;;;10.97;53.81
71105;BME280;58760;48.716;8.962;2023-04-08T12:37:17;96897.56;;;11.00;54.30
71105;BME280;58760;48.716;8.962;2023-04-08T12:39:42;96894.59;;;11.03;53.88
71105;BME280;58760;48.716;8.962;2023-04-08T12:42:07;96893.41;;;10.90;54.77
71105;BME280;58760;48.716;8.962;2023-04-08T12:44:33;96898.06;;;10.96;55.37
71105;BME280;58760;48.716;8.962;2023-04-08T12:46:58;96897.56;;;10.84;55.36
71105;BME280;58760;48.716;8.962;2023-04-08T12:49:24;96891.78;;;10.73;55.80
71105;BME280;58760;48.716;8.962;2023-04-08T12:51:50;96894.88;;;10.52;56.46
71105;BME280;58760;48.716;8.962;2023-04-08T12:54:15;96891.75;;;10.65;55.44
71105;BME280;58760;48.716;8.962;2023-04-08T12:56:41;96889.09;;;10.65;55.02
71105;BME280;58760;48.716;8.962;2023-04-08T12:59:10;96888.41;;;10.55;56.12
71105;BME280;58760;48.716;8.962;2023-04-08T13:01:36;96892.72;;;10.47;56.95
71105;BME280;58760;48.716;8.962;2023-04-08T13:04:01;96894.41;;;10.57;56.80
71105;BME280;58760;48.716;8.962;2023-04-08T13:06:27;96890.06;;;10.47;56.70
71105;BME280;58760;48.716;8.962;2023-04-08T13:08:53;96891.88;;;10.47;57.78
71105;BME280;58760;48.716;8.962;2023-04-08T13:11:18;96885.75;;;10.55;57.84
71105;BME280;58760;48.716;8.962;2023-04-08T13:13:44;96885.13;;;10.77;58.15
71105;BME280;58760;48.716;8.962;2023-04-08T13:16:10;96880.31;;;10.96;56.39
71105;BME280;58760;48.716;8.962;2023-04-08T13:18:36;96883.47;;;10.92;55.95